sensor_id;sensor_type;location;lat;lon;timestamp;temperature;humidity
11666;DHT22;5889;51.350;6.708;2022-12-29T00:01:24;11.50;99.90
11666;DHT22;5889;51.350;6.708;2022-12-29T00:03:51;11.40;99.90
11666;DHT22;5889;51.350;6.708;2022-12-29T00:06:17;11.40;99.90
11666;DHT22;5889;51.350;6.708;2022-12-29T00:08:44;11.40;99.90
11666;DHT22;5889;51.350;6.708;2022-12-29T00:11:14;11.40;99.90
11666;DHT22;5889;51.350;6.708;2022-12-29T00:13:41;11.40;99.90
11666;DHT22;5889;51.350;6.708;2022-12-29T00:16:27;11.40;99.90
11666;DHT22;5889;51.350;6.708;2022-12-29T00:18:54;11.40;99.90
11666;DHT22;5889;51.350;6.708;2022-12-29T00:21:22;11.40;99.90
11666;DHT22;5889;51.350;6.708;2022-12-29T00:24:10;11.40;99.90
11666;DHT22;5889;51.350;6.708;2022-12-29T00:27:10;11.40;99.90
11666;DHT22;5889;51.350;6.708;2022-12-29T00:29:55;11.40;99.90
11666;DHT22;5889;51.350;6.708;2022-12-29T00:32:39;11.40;99.90
11666;DHT22;5889;51.350;6.708;2022-12-29T00:35:28;11.40;99.90
11666;DHT22;5889;51.350;6.708;2022-12-29T00:37:56;11.50;99.90
11666;DHT22;5889;51.350;6.708;2022-12-29T00:40:41;11.40;99.90
11666;DHT22;5889;51.350;6.708;2022-12-29T00:43:26;11.40;99.90
11666;DHT22;5889;51.350;6.708;2022-12-29T00:46:10;11.40;99.90
11666;DHT22;5889;51.350;6.708;2022-12-29T00:48:37;11.40;99.90
11666;DHT22;5889;51.350;6.708;2022-12-29T00:51:21;11.40;99.90
11666;DHT22;5889;51.350;6.708;2022-12-29T00:53:49;11.40;99.90
11666;DHT22;5889;51.350;6.708;2022-12-29T00:56:15;11.30;99.90
11666;DHT22;5889;51.350;6.708;2022-12-29T00:58:43;11.40;99.90
11666;DHT22;5889;51.350;6.708;2022-12-29T01:01:10;11.40;99.90
11666;DHT22;5889;51.350;6.708;2022-12-29T01:03:37;11.40;99.90
11666;DHT22;5889;51.350;6.708;2022-12-29T01:06:06;11.40;99.90
11666;DHT22;5889;51.350;6.708;2022-12-29T01:08:33;11.50;99.90
11666;DHT22;5889;51.350;6.708;2022-12-29T01:11:01;11.50;99.90
11666;DHT22;5889;51.350;6.708;2022-12-29T01:13:27;11.60;99.90
11666;DHT22;5889;51.350;6.708;2022-12-29T01:15:56;11.70;99.90
11666;DHT22;5889;51.350;6.708;2022-12-29T01:18:23;11.70;99.90
11666;DHT22;5889;51.350;6.708;2022-12-29T01:20:50;11.70;99.90
11666;DHT22;5889;51.350;6.708;2022-12-29T01:23:17;11.70;99.90
11666;DHT22;5889;51.350;6.708;2022-12-29T01:25:44;11.80;99.90
11666;DHT22;5889;51.350;6.708;2022-12-29T01:28:11;11.80;99.90
11666;DHT22;5889;51.350;6.708;2022-12-29T01:30:37;11.80;99.90
11666;DHT22;5889;51.350;6.708;2022-12-29T01:33:05;11.90;99.90
11666;DHT22;5889;51.350;6.708;2022-12-29T01:35:32;11.90;99.90
11666;DHT22;5889;51.350;6.708;2022-12-29T01:37:59;11.90;99.90
11666;DHT22;5889;51.350;6.708;2022-12-29T01:40:25;11.90;99.90
11666;DHT22;5889;51.350;6.708;2022-12-29T01:42:53;11.90;99.90
11666;DHT22;5889;51.350;6.708;2022-12-29T01:45:20;11.90;99.90
11666;DHT22;5889;51.350;6.708;2022-12-29T01:47:50;11.90;99.90
11666;DHT22;5889;51.350;6.708;2022-12-29T01:50:24;11.90;99.90
11666;DHT22;5889;51.350;6.708;2022-12-29T01:53:01;12.00;99.90
11666;DHT22;5889;51.350;6.708;2022-12-29T01:55:30;11.90;99.90
11666;DHT22;5889;51.350;6.708;2022-12-29T01:58:00;11.90;99.90
11666;DHT22;5889;51.350;6.708;2022-12-29T02:00:30;11.90;99.90
11666;DHT22;5889;51.350;6.708;2022-12-29T02:02:56;11.90;99.90
11666;DHT22;5889;51.350;6.708;2022-12-29T02:05:27;11.90;99.90
11666;DHT22;5889;51.350;6.708;2022-12-29T02:07:54;11.90;99.90
11666;DHT22;5889;51.350;6.708;2022-12-29T02:10:22;11.90;99.90
11666;DHT22;5889;51.350;6.708;2022-12-29T02:12:50;11.90;99.90
11666;DHT22;5889;51.350;6.708;2022-12-29T02:15:17;11.90;99.90
11666;DHT22;5889;51.350;6.708;2022-12-29T02:17:58;11.80;99.90
11666;DHT22;5889;51.350;6.708;2022-12-29T02:23:53;11.90;99.90
11666;DHT22;5889;51.350;6.708;2022-12-29T02:26:41;11.90;99.90
11666;DHT22;5889;51.350;6.708;2022-12-29T02:29:38;11.90;99.90
11666;DHT22;5889;51.350;6.708;2022-12-29T02:32:13;11.90;99.90
11666;DHT22;5889;51.350;6.708;2022-12-29T02:34:47;11.90;99.90
11666;DHT22;5889;51.350;6.708;2022-12-29T02:37:21;11.90;99.90
11666;DHT22;5889;51.350;6.708;2022-12-29T02:39:56;11.80;99.90
11666;DHT22;5889;51.350;6.708;2022-12-29T02:42:30;11.80;99.90
11666;DHT22;5889;51.350;6.708;2022-12-29T02:45:03;11.80;99.90
11666;DHT22;5889;51.350;6.708;2022-12-29T02:47:37;11.80;99.90
11666;DHT22;5889;51.350;6.708;2022-12-29T02:50:08;11.80;99.90
11666;DHT22;5889;51.350;6.708;2022-12-29T02:52:44;11.80;99.90
11666;DHT22;5889;51.350;6.708;2022-12-29T02:55:13;11.80;99.90
11666;DHT22;5889;51.350;6.708;2022-12-29T02:57:38;11.80;99.90
11666;DHT22;5889;51.350;6.708;2022-12-29T03:00:07;11.90;99.90
11666;DHT22;5889;51.350;6.708;2022-12-29T03:02:52;11.90;99.90
11666;DHT22;5889;51.350;6.708;2022-12-29T03:05:37;11.90;99.90
11666;DHT22;5889;51.350;6.708;2022-12-29T03:08:17;11.90;99.90
11666;DHT22;5889;51.350;6.708;2022-12-29T03:10:50;11.90;99.90
11666;DHT22;5889;51.350;6.708;2022-12-29T03:13:23;11.90;99.90
11666;DHT22;5889;51.350;6.708;2022-12-29T03:16:17;11.90;99.90
11666;DHT22;5889;51.350;6.708;2022-12-29T03:18:53;11.90;99.90
11666;DHT22;5889;51.350;6.708;2022-12-29T03:21:26;11.90;99.90
11666;DHT22;5889;51.350;6.708;2022-12-29T03:24:10;11.90;99.90
11666;DHT22;5889;51.350;6.708;2022-12-29T03:26:37;11.90;99.90
11666;DHT22;5889;51.350;6.708;2022-12-29T03:29:06;12.00;99.90
11666;DHT22;5889;51.350;6.708;2022-12-29T03:31:35;11.90;99.90
11666;DHT22;5889;51.350;6.708;2022-12-29T03:34:04;12.00;99.90
11666;DHT22;5889;51.350;6.708;2022-12-29T03:36:38;12.00;99.90
11666;DHT22;5889;51.350;6.708;2022-12-29T03:39:09;12.00;99.90
11666;DHT22;5889;51.350;6.708;2022-12-29T03:41:40;12.00;99.90
11666;DHT22;5889;51.350;6.708;2022-12-29T03:44:07;12.00;99.90
11666;DHT22;5889;51.350;6.708;2022-12-29T03:46:34;11.90;99.90
11666;DHT22;5889;51.350;6.708;2022-12-29T03:49:02;12.00;99.90
11666;DHT22;5889;51.350;6.708;2022-12-29T03:51:29;11.90;99.90
11666;DHT22;5889;51.350;6.708;2022-12-29T03:53:56;12.00;99.90
11666;DHT22;5889;51.350;6.708;2022-12-29T03:56:22;12.00;99.90
11666;DHT22;5889;51.350;6.708;2022-12-29T03:58:49;11.90;99.90
11666;DHT22;5889;51.350;6.708;2022-12-29T04:01:16;11.90;99.90
11666;DHT22;5889;51.350;6.708;2022-12-29T04:03:43;12.00;99.90
11666;DHT22;5889;51.350;6.708;2022-12-29T04:06:11;11.90;99.90
11666;DHT22;5889;51.350;6.708;2022-12-29T04:08:37;11.90;99.90
11666;DHT22;5889;51.350;6.708;2022-12-29T04:11:04;12.00;99.90
11666;DHT22;5889;51.350;6.708;2022-12-29T04:13:31;12.00;99.90
11666;DHT22;5889;51.350;6.708;2022-12-29T04:15:58;12.00;99.90
11666;DHT22;5889;51.350;6.708;2022-12-29T04:18:24;12.00;99.90
11666;DHT22;5889;51.350;6.708;2022-12-29T04:20:51;12.00;99.90
11666;DHT22;5889;51.350;6.708;2022-12-29T04:23:30;12.10;99.90
11666;DHT22;5889;51.350;6.708;2022-12-29T04:25:57;12.10;99.90
11666;DHT22;5889;51.350;6.708;2022-12-29T04:28:24;12.10;99.90
11666;DHT22;5889;51.350;6.708;2022-12-29T04:30:51;12.20;99.90
11666;DHT22;5889;51.350;6.708;2022-12-29T04:33:18;12.10;99.90
11666;DHT22;5889;51.350;6.708;2022-12-29T04:35:45;12.20;99.90
11666;DHT22;5889;51.350;6.708;2022-12-29T04:38:11;12.20;99.90
11666;DHT22;5889;51.350;6.708;2022-12-29T04:40:40;12.20;99.90
11666;DHT22;5889;51.350;6.708;2022-12-29T04:43:07;12.20;99.90
11666;DHT22;5889;51.350;6.708;2022-12-29T04:45:34;12.20;99.90
11666;DHT22;5889;51.350;6.708;2022-12-29T04:48:01;12.10;99.90
11666;DHT22;5889;51.350;6.708;2022-12-29T04:50:27;12.10;99.90
11666;DHT22;5889;51.350;6.708;2022-12-29T04:52:54;12.20;99.90
11666;DHT22;5889;51.350;6.708;2022-12-29T04:55:21;12.20;99.90
11666;DHT22;5889;51.350;6.708;2022-12-29T04:57:49;12.20;99.90
11666;DHT22;5889;51.350;6.708;2022-12-29T05:00:16;12.20;99.90
11666;DHT22;5889;51.350;6.708;2022-12-29T05:02:43;12.20;99.90
11666;DHT22;5889;51.350;6.708;2022-12-29T05:05:10;12.20;99.90
11666;DHT22;5889;51.350;6.708;2022-12-29T05:07:36;12.20;99.90
11666;DHT22;5889;51.350;6.708;2022-12-29T05:10:04;12.20;99.90
11666;DHT22;5889;51.350;6.708;2022-12-29T05:12:31;12.20;99.90
11666;DHT22;5889;51.350;6.708;2022-12-29T05:14:59;12.20;99.90
11666;DHT22;5889;51.350;6.708;2022-12-29T05:17:28;12.20;99.90
11666;DHT22;5889;51.350;6.708;2022-12-29T05:19:54;12.20;99.90
11666;DHT22;5889;51.350;6.708;2022-12-29T05:22:21;12.20;99.90
11666;DHT22;5889;51.350;6.708;2022-12-29T05:24:48;12.20;99.90
11666;DHT22;5889;51.350;6.708;2022-12-29T05:27:15;12.20;99.90
11666;DHT22;5889;51.350;6.708;2022-12-29T05:29:42;12.20;99.90
11666;DHT22;5889;51.350;6.708;2022-12-29T05:32:10;12.10;99.90
11666;DHT22;5889;51.350;6.708;2022-12-29T05:34:36;12.10;99.90
11666;DHT22;5889;51.350;6.708;2022-12-29T05:37:03;12.00;99.90
11666;DHT22;5889;51.350;6.708;2022-12-29T05:39:30;11.90;99.90
11666;DHT22;5889;51.350;6.708;2022-12-29T05:41:56;11.80;99.90
11666;DHT22;5889;51.350;6.708;2022-12-29T05:44:23;11.70;99.90
11666;DHT22;5889;51.350;6.708;2022-12-29T05:46:50;11.70;99.90
11666;DHT22;5889;51.350;6.708;2022-12-29T05:49:18;11.70;99.90
11666;DHT22;5889;51.350;6.708;2022-12-29T05:51:45;11.60;99.90
11666;DHT22;5889;51.350;6.708;2022-12-29T05:54:12;11.60;99.90
11666;DHT22;5889;51.350;6.708;2022-12-29T05:56:38;11.50;99.90
11666;DHT22;5889;51.350;6.708;2022-12-29T05:59:05;11.50;99.90
11666;DHT22;5889;51.350;6.708;2022-12-29T06:01:32;11.40;99.90
11666;DHT22;5889;51.350;6.708;2022-12-29T06:03:59;11.40;99.90
11666;DHT22;5889;51.350;6.708;2022-12-29T06:06:28;11.40;99.90
11666;DHT22;5889;51.350;6.708;2022-12-29T06:08:54;11.40;99.90
11666;DHT22;5889;51.350;6.708;2022-12-29T06:11:21;11.30;99.90
11666;DHT22;5889;51.350;6.708;2022-12-29T06:13:48;11.30;99.90
11666;DHT22;5889;51.350;6.708;2022-12-29T06:16:15;11.30;99.90
11666;DHT22;5889;51.350;6.708;2022-12-29T06:18:41;11.30;99.90
11666;DHT22;5889;51.350;6.708;2022-12-29T06:21:08;11.30;99.90
11666;DHT22;5889;51.350;6.708;2022-12-29T06:23:36;11.40;99.90
11666;DHT22;5889;51.350;6.708;2022-12-29T06:26:03;11.40;99.90
11666;DHT22;5889;51.350;6.708;2022-12-29T06:28:30;11.40;99.90
11666;DHT22;5889;51.350;6.708;2022-12-29T06:30:57;11.50;99.90
11666;DHT22;5889;51.350;6.708;2022-12-29T06:33:23;11.50;99.90
11666;DHT22;5889;51.350;6.708;2022-12-29T06:35:50;11.60;99.90
11666;DHT22;5889;51.350;6.708;2022-12-29T06:38:17;11.60;99.90
11666;DHT22;5889;51.350;6.708;2022-12-29T06:40:45;11.60;99.90
11666;DHT22;5889;51.350;6.708;2022-12-29T06:43:12;11.60;99.90
11666;DHT22;5889;51.350;6.708;2022-12-29T06:45:39;11.70;99.90
11666;DHT22;5889;51.350;6.708;2022-12-29T06:48:06;11.70;99.90
11666;DHT22;5889;51.350;6.708;2022-12-29T06:50:33;11.70;99.90
11666;DHT22;5889;51.350;6.708;2022-12-29T06:53:00;11.70;99.90
11666;DHT22;5889;51.350;6.708;2022-12-29T06:55:26;11.70;99.90
11666;DHT22;5889;51.350;6.708;2022-12-29T06:57:55;11.70;99.90
11666;DHT22;5889;51.350;6.708;2022-12-29T07:00:22;11.70;99.90
11666;DHT22;5889;51.350;6.708;2022-12-29T07:02:49;11.70;99.90
11666;DHT22;5889;51.350;6.708;2022-12-29T07:05:15;11.60;99.90
11666;DHT22;5889;51.350;6.708;2022-12-29T07:07:42;11.70;99.90
11666;DHT22;5889;51.350;6.708;2022-12-29T07:10:09;11.60;99.90
11666;DHT22;5889;51.350;6.708;2022-12-29T07:12:35;11.70;99.90
11666;DHT22;5889;51.350;6.708;2022-12-29T07:15:04;11.60;99.90
11666;DHT22;5889;51.350;6.708;2022-12-29T07:17:31;11.60;99.90
11666;DHT22;5889;51.350;6.708;2022-12-29T07:19:58;11.70;99.90
11666;DHT22;5889;51.350;6.708;2022-12-29T07:22:25;11.70;99.90
11666;DHT22;5889;51.350;6.708;2022-12-29T07:24:51;11.70;99.90
11666;DHT22;5889;51.350;6.708;2022-12-29T07:27:18;11.70;99.90
11666;DHT22;5889;51.350;6.708;2022-12-29T07:29:45;11.60;99.90
11666;DHT22;5889;51.350;6.708;2022-12-29T07:32:13;11.60;99.90
11666;DHT22;5889;51.350;6.708;2022-12-29T07:34:40;11.60;99.90
11666;DHT22;5889;51.350;6.708;2022-12-29T07:37:06;11.60;99.90
11666;DHT22;5889;51.350;6.708;2022-12-29T07:39:33;11.60;99.90
11666;DHT22;5889;51.350;6.708;2022-12-29T07:42:00;11.60;99.90
11666;DHT22;5889;51.350;6.708;2022-12-29T07:44:27;11.60;99.90
11666;DHT22;5889;51.350;6.708;2022-12-29T07:46:53;11.60;99.90
11666;DHT22;5889;51.350;6.708;2022-12-29T07:49:21;11.60;99.90
11666;DHT22;5889;51.350;6.708;2022-12-29T07:51:48;11.50;99.90
11666;DHT22;5889;51.350;6.708;2022-12-29T07:54:15;11.50;99.90
11666;DHT22;5889;51.350;6.708;2022-12-29T07:56:43;11.50;99.90
11666;DHT22;5889;51.350;6.708;2022-12-29T07:59:10;11.50;99.90
11666;DHT22;5889;51.350;6.708;2022-12-29T08:01:38;11.50;99.90
11666;DHT22;5889;51.350;6.708;2022-12-29T08:04:05;11.50;99.90
11666;DHT22;5889;51.350;6.708;2022-12-29T08:06:33;11.50;99.90
11666;DHT22;5889;51.350;6.708;2022-12-29T08:09:00;11.50;99.90
11666;DHT22;5889;51.350;6.708;2022-12-29T08:11:27;11.40;99.90
11666;DHT22;5889;51.350;6.708;2022-12-29T08:13:54;11.40;99.90
11666;DHT22;5889;51.350;6.708;2022-12-29T08:16:20;11.40;99.90
11666;DHT22;5889;51.350;6.708;2022-12-29T08:18:47;11.40;99.90
11666;DHT22;5889;51.350;6.708;2022-12-29T08:21:14;11.40;99.90
11666;DHT22;5889;51.350;6.708;2022-12-29T08:23:42;11.40;99.90
11666;DHT22;5889;51.350;6.708;2022-12-29T08:26:09;11.40;99.90
11666;DHT22;5889;51.350;6.708;2022-12-29T08:28:36;11.50;99.90
11666;DHT22;5889;51.350;6.708;2022-12-29T08:31:03;11.40;99.90
11666;DHT22;5889;51.350;6.708;2022-12-29T08:33:30;11.50;99.90
11666;DHT22;5889;51.350;6.708;2022-12-29T08:35:59;11.50;99.90
11666;DHT22;5889;51.350;6.708;2022-12-29T08:38:27;11.50;99.90
11666;DHT22;5889;51.350;6.708;2022-12-29T08:40:55;11.40;99.90
11666;DHT22;5889;51.350;6.708;2022-12-29T08:43:22;11.50;99.90
11666;DHT22;5889;51.350;6.708;2022-12-29T08:45:49;11.40;99.90
11666;DHT22;5889;51.350;6.708;2022-12-29T08:48:16;11.30;99.90
11666;DHT22;5889;51.350;6.708;2022-12-29T08:50:45;11.30;99.90
11666;DHT22;5889;51.350;6.708;2022-12-29T08:53:12;11.30;99.90
11666;DHT22;5889;51.350;6.708;2022-12-29T08:55:39;11.30;99.90
11666;DHT22;5889;51.350;6.708;2022-12-29T08:58:07;11.20;99.90
11666;DHT22;5889;51.350;6.708;2022-12-29T09:00:33;11.20;99.90
11666;DHT22;5889;51.350;6.708;2022-12-29T09:03:01;11.20;99.90
11666;DHT22;5889;51.350;6.708;2022-12-29T09:05:27;11.10;99.90
11666;DHT22;5889;51.350;6.708;2022-12-29T09:07:54;11.10;99.90
11666;DHT22;5889;51.350;6.708;2022-12-29T09:10:21;11.20;99.90
11666;DHT22;5889;51.350;6.708;2022-12-29T09:12:47;11.30;99.90
11666;DHT22;5889;51.350;6.708;2022-12-29T09:15:16;11.40;99.90
11666;DHT22;5889;51.350;6.708;2022-12-29T09:17:42;11.40;99.90
11666;DHT22;5889;51.350;6.708;2022-12-29T09:20:19;11.40;99.90
11666;DHT22;5889;51.350;6.708;2022-12-29T09:22:52;11.40;99.90
11666;DHT22;5889;51.350;6.708;2022-12-29T09:25:19;11.40;99.90
11666;DHT22;5889;51.350;6.708;2022-12-29T09:27:49;11.40;99.90
11666;DHT22;5889;51.350;6.708;2022-12-29T09:30:20;11.40;99.90
11666;DHT22;5889;51.350;6.708;2022-12-29T09:32:47;11.40;99.90
11666;DHT22;5889;51.350;6.708;2022-12-29T09:35:14;11.40;99.90
11666;DHT22;5889;51.350;6.708;2022-12-29T09:37:41;11.40;99.90
11666;DHT22;5889;51.350;6.708;2022-12-29T09:40:22;11.40;99.90
11666;DHT22;5889;51.350;6.708;2022-12-29T09:43:01;11.40;99.90
11666;DHT22;5889;51.350;6.708;2022-12-29T09:45:35;11.40;99.90
11666;DHT22;5889;51.350;6.708;2022-12-29T09:48:03;11.40;99.90
11666;DHT22;5889;51.350;6.708;2022-12-29T09:50:34;11.40;99.90
11666;DHT22;5889;51.350;6.708;2022-12-29T09:53:07;11.40;99.90
11666;DHT22;5889;51.350;6.708;2022-12-29T09:55:39;11.40;99.90
11666;DHT22;5889;51.350;6.708;2022-12-29T09:58:12;11.40;99.90
11666;DHT22;5889;51.350;6.708;2022-12-29T10:00:48;11.40;99.90
11666;DHT22;5889;51.350;6.708;2022-12-29T10:03:17;11.40;99.90
11666;DHT22;5889;51.350;6.708;2022-12-29T10:05:49;11.50;99.90
11666;DHT22;5889;51.350;6.708;2022-12-29T10:08:28;11.50;99.90
11666;DHT22;5889;51.350;6.708;2022-12-29T10:10:59;11.50;99.90
11666;DHT22;5889;51.350;6.708;2022-12-29T10:13:39;11.50;99.90
11666;DHT22;5889;51.350;6.708;2022-12-29T10:16:16;11.50;99.90
11666;DHT22;5889;51.350;6.708;2022-12-29T10:21:56;11.50;99.90
11666;DHT22;5889;51.350;6.708;2022-12-29T10:24:26;11.50;99.90
11666;DHT22;5889;51.350;6.708;2022-12-29T10:26:55;11.50;99.90
11666;DHT22;5889;51.350;6.708;2022-12-29T10:29:27;11.60;99.90
11666;DHT22;5889;51.350;6.708;2022-12-29T10:32:02;11.70;99.90
11666;DHT22;5889;51.350;6.708;2022-12-29T10:34:34;11.70;99.90
11666;DHT22;5889;51.350;6.708;2022-12-29T10:37:04;11.70;99.90
11666;DHT22;5889;51.350;6.708;2022-12-29T10:39:36;11.80;99.90
11666;DHT22;5889;51.350;6.708;2022-12-29T10:42:11;11.70;99.90
11666;DHT22;5889;51.350;6.708;2022-12-29T10:44:39;11.70;99.90
11666;DHT22;5889;51.350;6.708;2022-12-29T10:47:13;11.80;99.90
11666;DHT22;5889;51.350;6.708;2022-12-29T10:49:43;11.80;99.90
11666;DHT22;5889;51.350;6.708;2022-12-29T10:52:11;11.80;99.90
11666;DHT22;5889;51.350;6.708;2022-12-29T10:54:44;11.80;99.90
11666;DHT22;5889;51.350;6.708;2022-12-29T10:57:17;11.80;99.90
11666;DHT22;5889;51.350;6.708;2022-12-29T10:59:46;11.80;99.90
11666;DHT22;5889;51.350;6.708;2022-12-29T11:02:41;11.90;99.90
11666;DHT22;5889;51.350;6.708;2022-12-29T11:05:16;11.80;99.90
11666;DHT22;5889;51.350;6.708;2022-12-29T11:07:47;11.80;99.90
11666;DHT22;5889;51.350;6.708;2022-12-29T11:10:21;11.90;99.90
11666;DHT22;5889;51.350;6.708;2022-12-29T11:12:56;11.80;99.90
11666;DHT22;5889;51.350;6.708;2022-12-29T11:15:23;11.80;99.90
11666;DHT22;5889;51.350;6.708;2022-12-29T11:17:53;11.80;99.90
11666;DHT22;5889;51.350;6.708;2022-12-29T11:20:34;11.80;99.90
11666;DHT22;5889;51.350;6.708;2022-12-29T11:23:01;11.80;99.90
11666;DHT22;5889;51.350;6.708;2022-12-29T11:25:29;11.80;99.90
11666;DHT22;5889;51.350;6.708;2022-12-29T11:27:57;11.90;99.90
11666;DHT22;5889;51.350;6.708;2022-12-29T11:30:27;11.80;99.90
11666;DHT22;5889;51.350;6.708;2022-12-29T11:32:56;11.90;99.90
11666;DHT22;5889;51.350;6.708;2022-12-29T11:35:31;11.90;99.90
11666;DHT22;5889;51.350;6.708;2022-12-29T11:37:58;11.90;99.90
11666;DHT22;5889;51.350;6.708;2022-12-29T11:40:26;11.90;99.90
11666;DHT22;5889;51.350;6.708;2022-12-29T11:42:55;11.90;99.90
11666;DHT22;5889;51.350;6.708;2022-12-29T11:45:24;12.00;99.90
11666;DHT22;5889;51.350;6.708;2022-12-29T11:47:56;12.00;99.90
11666;DHT22;5889;51.350;6.708;2022-12-29T11:50:24;12.00;99.90
11666;DHT22;5889;51.350;6.708;2022-12-29T11:52:58;12.00;99.90
11666;DHT22;5889;51.350;6.708;2022-12-29T11:55:26;12.00;99.90
11666;DHT22;5889;51.350;6.708;2022-12-29T11:57:55;12.00;99.90
11666;DHT22;5889;51.350;6.708;2022-12-29T12:00:24;12.00;99.90
11666;DHT22;5889;51.350;6.708;2022-12-29T12:02:57;12.10;99.90
11666;DHT22;5889;51.350;6.708;2022-12-29T12:05:30;12.10;99.90
11666;DHT22;5889;51.350;6.708;2022-12-29T12:08:03;12.00;99.90
11666;DHT22;5889;51.350;6.708;2022-12-29T12:10:36;12.10;99.90
11666;DHT22;5889;51.350;6.708;2022-12-29T12:13:14;12.00;99.90
11666;DHT22;5889;51.350;6.708;2022-12-29T12:15:45;12.00;99.90
11666;DHT22;5889;51.350;6.708;2022-12-29T12:18:18;12.00;99.90
11666;DHT22;5889;51.350;6.708;2022-12-29T12:20:49;12.00;99.90
11666;DHT22;5889;51.350;6.708;2022-12-29T12:23:28;12.00;99.90
11666;DHT22;5889;51.350;6.708;2022-12-29T12:26:03;12.00;99.90
11666;DHT22;5889;51.350;6.708;2022-12-29T12:28:40;11.90;99.90
11666;DHT22;5889;51.350;6.708;2022-12-29T12:31:17;12.00;99.90
11666;DHT22;5889;51.350;6.708;2022-12-29T12:33:49;11.90;99.90
11666;DHT22;5889;51.350;6.708;2022-12-29T12:36:46;11.90;99.90
11666;DHT22;5889;51.350;6.708;2022-12-29T12:39:25;11.90;99.90
11666;DHT22;5889;51.350;6.708;2022-12-29T12:42:03;11.90;99.90
11666;DHT22;5889;51.350;6.708;2022-12-29T12:44:36;11.90;99.90
11666;DHT22;5889;51.350;6.708;2022-12-29T12:47:22;11.90;99.90
11666;DHT22;5889;51.350;6.708;2022-12-29T12:50:22;11.90;99.90
11666;DHT22;5889;51.350;6.708;2022-12-29T12:53:24;11.90;99.90
11666;DHT22;5889;51.350;6.708;2022-12-29T12:56:08;11.90;99.90
11666;DHT22;5889;51.350;6.708;2022-12-29T12:58:45;11.90;99.90
11666;DHT22;5889;51.350;6.708;2022-12-29T13:01:29;11.90;99.90
11666;DHT22;5889;51.350;6.708;2022-12-29T13:04:15;11.80;99.90
11666;DHT22;5889;51.350;6.708;2022-12-29T13:06:56;11.80;99.90
11666;DHT22;5889;51.350;6.708;2022-12-29T13:09:42;11.80;99.90
11666;DHT22;5889;51.350;6.708;2022-12-29T13:12:21;11.80;99.90
11666;DHT22;5889;51.350;6.708;2022-12-29T13:15:00;11.80;99.90
11666;DHT22;5889;51.350;6.708;2022-12-29T13:17:34;11.80;99.90
11666;DHT22;5889;51.350;6.708;2022-12-29T13:20:10;11.80;99.90
11666;DHT22;5889;51.350;6.708;2022-12-29T13:22:50;11.80;99.90
11666;DHT22;5889;51.350;6.708;2022-12-29T13:25:27;11.80;99.90
11666;DHT22;5889;51.350;6.708;2022-12-29T13:28:02;11.80;99.90
11666;DHT22;5889;51.350;6.708;2022-12-29T13:30:34;11.80;99.90
11666;DHT22;5889;51.350;6.708;2022-12-29T13:33:07;11.70;99.90
11666;DHT22;5889;51.350;6.708;2022-12-29T13:35:59;11.70;99.90
11666;DHT22;5889;51.350;6.708;2022-12-29T13:38:34;11.70;99.90
11666;DHT22;5889;51.350;6.708;2022-12-29T13:41:04;11.70;99.90
11666;DHT22;5889;51.350;6.708;2022-12-29T13:43:35;11.70;99.90
11666;DHT22;5889;51.350;6.708;2022-12-29T13:46:09;11.70;99.90
11666;DHT22;5889;51.350;6.708;2022-12-29T13:48:39;11.70;99.90
11666;DHT22;5889;51.350;6.708;2022-12-29T13:51:08;11.60;99.90
11666;DHT22;5889;51.350;6.708;2022-12-29T13:53:48;11.60;99.90
11666;DHT22;5889;51.350;6.708;2022-12-29T13:56:25;11.60;99.90
11666;DHT22;5889;51.350;6.708;2022-12-29T13:58:58;11.60;99.90
11666;DHT22;5889;51.350;6.708;2022-12-29T14:01:33;11.60;99.90
11666;DHT22;5889;51.350;6.708;2022-12-29T14:04:03;11.60;99.90
11666;DHT22;5889;51.350;6.708;2022-12-29T14:06:35;11.60;99.90
11666;DHT22;5889;51.350;6.708;2022-12-29T14:09:31;11.60;99.90
11666;DHT22;5889;51.350;6.708;2022-12-29T14:12:01;11.60;99.90
11666;DHT22;5889;51.350;6.708;2022-12-29T14:14:30;11.60;99.90
11666;DHT22;5889;51.350;6.708;2022-12-29T14:17:09;11.60;99.90
11666;DHT22;5889;51.350;6.708;2022-12-29T14:19:38;11.60;99.90
11666;DHT22;5889;51.350;6.708;2022-12-29T14:22:07;11.60;99.90
11666;DHT22;5889;51.350;6.708;2022-12-29T14:24:42;11.60;99.90
11666;DHT22;5889;51.350;6.708;2022-12-29T14:27:44;11.60;99.90
11666;DHT22;5889;51.350;6.708;2022-12-29T14:30:51;11.60;99.90
11666;DHT22;5889;51.350;6.708;2022-12-29T14:33:19;11.60;99.90
11666;DHT22;5889;51.350;6.708;2022-12-29T14:35:48;11.50;99.90
11666;DHT22;5889;51.350;6.708;2022-12-29T14:38:20;11.50;99.90
11666;DHT22;5889;51.350;6.708;2022-12-29T14:40:49;11.50;99.90
11666;DHT22;5889;51.350;6.708;2022-12-29T14:43:24;11.40;99.90
11666;DHT22;5889;51.350;6.708;2022-12-29T14:45:57;11.40;99.90
11666;DHT22;5889;51.350;6.708;2022-12-29T14:48:35;11.40;99.90
11666;DHT22;5889;51.350;6.708;2022-12-29T14:51:17;11.40;99.90
11666;DHT22;5889;51.350;6.708;2022-12-29T14:53:46;11.40;99.90
11666;DHT22;5889;51.350;6.708;2022-12-29T14:56:16;11.30;99.90
11666;DHT22;5889;51.350;6.708;2022-12-29T14:58:47;11.30;99.90
11666;DHT22;5889;51.350;6.708;2022-12-29T15:01:23;11.30;99.90
11666;DHT22;5889;51.350;6.708;2022-12-29T15:03:53;11.30;99.90
11666;DHT22;5889;51.350;6.708;2022-12-29T15:06:22;11.20;99.90
11666;DHT22;5889;51.350;6.708;2022-12-29T15:08:52;11.20;99.90
11666;DHT22;5889;51.350;6.708;2022-12-29T15:11:23;11.20;99.90
11666;DHT22;5889;51.350;6.708;2022-12-29T15:13:50;11.20;99.90
11666;DHT22;5889;51.350;6.708;2022-12-29T15:16:26;11.20;99.90
11666;DHT22;5889;51.350;6.708;2022-12-29T15:18:55;11.20;99.90
11666;DHT22;5889;51.350;6.708;2022-12-29T15:21:25;11.20;99.90
11666;DHT22;5889;51.350;6.708;2022-12-29T15:23:52;11.20;99.90
11666;DHT22;5889;51.350;6.708;2022-12-29T15:26:22;11.10;99.90
11666;DHT22;5889;51.350;6.708;2022-12-29T15:28:50;11.10;99.90
11666;DHT22;5889;51.350;6.708;2022-12-29T15:31:19;11.10;99.90
11666;DHT22;5889;51.350;6.708;2022-12-29T15:33:49;11.10;99.90
11666;DHT22;5889;51.350;6.708;2022-12-29T15:36:19;11.00;99.90
11666;DHT22;5889;51.350;6.708;2022-12-29T15:38:47;11.00;99.90
11666;DHT22;5889;51.350;6.708;2022-12-29T15:41:32;11.00;99.90
11666;DHT22;5889;51.350;6.708;2022-12-29T15:44:21;11.00;99.90
11666;DHT22;5889;51.350;6.708;2022-12-29T15:46:50;10.90;99.90
11666;DHT22;5889;51.350;6.708;2022-12-29T15:49:17;10.90;99.90
11666;DHT22;5889;51.350;6.708;2022-12-29T15:51:44;10.90;99.90
11666;DHT22;5889;51.350;6.708;2022-12-29T15:54:15;10.90;99.90
11666;DHT22;5889;51.350;6.708;2022-12-29T15:56:45;10.80;99.90
11666;DHT22;5889;51.350;6.708;2022-12-29T15:59:23;10.80;99.90
11666;DHT22;5889;51.350;6.708;2022-12-29T16:01:51;10.70;99.90
11666;DHT22;5889;51.350;6.708;2022-12-29T16:04:18;10.70;99.90
11666;DHT22;5889;51.350;6.708;2022-12-29T16:06:54;10.60;99.90
11666;DHT22;5889;51.350;6.708;2022-12-29T16:09:30;10.60;99.90
11666;DHT22;5889;51.350;6.708;2022-12-29T16:12:00;10.60;99.90
11666;DHT22;5889;51.350;6.708;2022-12-29T16:14:31;10.50;99.90
11666;DHT22;5889;51.350;6.708;2022-12-29T16:17:02;10.40;99.90